sensor_id;sensor_type;location;lat;lon;timestamp;P1;durP1;ratioP1;P2;durP2;ratioP2
21624;SDS011;10974;51.034;3.744;2023-12-22T03:42:27;12.63;;;3.43;;
21624;SDS011;10974;51.034;3.744;2023-12-22T03:44:53;12.20;;;3.80;;
21624;SDS011;10974;51.034;3.744;2023-12-22T03:47:19;10.83;;;3.30;;
21624;SDS011;10974;51.034;3.744;2023-12-22T03:49:45;10.20;;;3.20;;
21624;SDS011;10974;51.034;3.744;2023-12-22T03:52:11;8.70;;;3.20;;
21624;SDS011;10974;51.034;3.744;2023-12-22T03:54:37;12.47;;;3.67;;
21624;SDS011;10974;51.034;3.744;2023-12-22T03:57:03;16.70;;;4.83;;
21624;SDS011;10974;51.034;3.744;2023-12-22T03:59:29;12.33;;;3.37;;
21624;SDS011;10974;51.034;3.744;2023-12-22T04:01:55;13.90;;;3.70;;
21624;SDS011;10974;51.034;3.744;2023-12-22T04:04:23;14.53;;;4.70;;
21624;SDS011;10974;51.034;3.744;2023-12-22T04:06:52;13.83;;;3.83;;
21624;SDS011;10974;51.034;3.744;2023-12-22T04:09:18;19.73;;;4.90;;
21624;SDS011;10974;51.034;3.744;2023-12-22T04:11:44;13.37;;;4.20;;
21624;SDS011;10974;51.034;3.744;2023-12-22T04:14:10;18.70;;;4.30;;
21624;SDS011;10974;51.034;3.744;2023-12-22T04:16:36;14.50;;;4.07;;
21624;SDS011;10974;51.034;3.744;2023-12-22T04:19:03;17.33;;;4.40;;
21624;SDS011;10974;51.034;3.744;2023-12-22T04:21:29;14.30;;;4.27;;
21624;SDS011;10974;51.034;3.744;2023-12-22T04:23:55;18.77;;;4.77;;
21624;SDS011;10974;51.034;3.744;2023-12-22T04:26:21;16.30;;;4.20;;
21624;SDS011;10974;51.034;3.744;2023-12-22T04:28:47;12.77;;;4.10;;
21624;SDS011;10974;51.034;3.744;2023-12-22T04:31:13;15.27;;;4.00;;
21624;SDS011;10974;51.034;3.744;2023-12-22T04:33:39;13.20;;;4.30;;
21624;SDS011;10974;51.034;3.744;2023-12-22T04:36:05;12.93;;;4.27;;
21624;SDS011;10974;51.034;3.744;2023-12-22T04:38:31;15.53;;;3.47;;
21624;SDS011;10974;51.034;3.744;2023-12-22T04:40:57;11.50;;;4.30;;
21624;SDS011;10974;51.034;3.744;2023-12-22T04:43:23;16.57;;;4.20;;
21624;SDS011;10974;51.034;3.744;2023-12-22T04:45:49;12.90;;;3.80;;
21624;SDS011;10974;51.034;3.744;2023-12-22T04:48:15;12.93;;;4.00;;
21624;SDS011;10974;51.034;3.744;2023-12-22T04:50:42;13.70;;;3.97;;
21624;SDS011;10974;51.034;3.744;2023-12-22T04:53:08;10.07;;;3.77;;
21624;SDS011;10974;51.034;3.744;2023-12-22T04:55:34;11.33;;;3.73;;
21624;SDS011;10974;51.034;3.744;2023-12-22T04:58:00;14.23;;;3.97;;
21624;SDS011;10974;51.034;3.744;2023-12-22T05:00:26;18.00;;;4.70;;
21624;SDS011;10974;51.034;3.744;2023-12-22T05:02:52;12.77;;;3.60;;
21624;SDS011;10974;51.034;3.744;2023-12-22T05:05:18;18.00;;;3.90;;
21624;SDS011;10974;51.034;3.744;2023-12-22T05:07:44;15.43;;;3.80;;
21624;SDS011;10974;51.034;3.744;2023-12-22T05:10:10;10.63;;;3.33;;
21624;SDS011;10974;51.034;3.744;2023-12-22T05:12:36;14.50;;;4.60;;
21624;SDS011;10974;51.034;3.744;2023-12-22T05:15:02;12.07;;;3.57;;
21624;SDS011;10974;51.034;3.744;2023-12-22T05:17:29;10.70;;;3.57;;
21624;SDS011;10974;51.034;3.744;2023-12-22T05:19:55;12.47;;;3.70;;
21624;SDS011;10974;51.034;3.744;2023-12-22T05:22:21;16.17;;;4.30;;
21624;SDS011;10974;51.034;3.744;2023-12-22T05:24:47;13.20;;;4.40;;
21624;SDS011;10974;51.034;3.744;2023-12-22T05:27:13;12.27;;;3.30;;
21624;SDS011;10974;51.034;3.744;2023-12-22T05:29:39;11.60;;;3.80;;
21624;SDS011;10974;51.034;3.744;2023-12-22T05:32:05;13.13;;;3.70;;
21624;SDS011;10974;51.034;3.744;2023-12-22T05:34:32;17.47;;;4.23;;
21624;SDS011;10974;51.034;3.744;2023-12-22T05:36:58;12.73;;;3.13;;
21624;SDS011;10974;51.034;3.744;2023-12-22T05:39:24;8.70;;;3.27;;
21624;SDS011;10974;51.034;3.744;2023-12-22T05:41:50;11.40;;;3.67;;
21624;SDS011;10974;51.034;3.744;2023-12-22T05:44:16;10.80;;;3.60;;
21624;SDS011;10974;51.034;3.744;2023-12-22T05:46:42;12.07;;;3.70;;
21624;SDS011;10974;51.034;3.744;2023-12-22T05:49:08;12.03;;;3.60;;
21624;SDS011;10974;51.034;3.744;2023-12-22T05:51:38;13.90;;;3.07;;
21624;SDS011;10974;51.034;3.744;2023-12-22T05:54:04;12.10;;;3.20;;
21624;SDS011;10974;51.034;3.744;2023-12-22T05:56:31;10.83;;;2.90;;
21624;SDS011;10974;51.034;3.744;2023-12-22T05:58:57;13.73;;;3.30;;
21624;SDS011;10974;51.034;3.744;2023-12-22T06:01:23;10.67;;;3.53;;
21624;SDS011;10974;51.034;3.744;2023-12-22T06:03:49;9.90;;;3.07;;
21624;SDS011;10974;51.034;3.744;2023-12-22T06:06:16;9.90;;;2.90;;
21624;SDS011;10974;51.034;3.744;2023-12-22T06:08:42;12.60;;;3.30;;
21624;SDS011;10974;51.034;3.744;2023-12-22T06:11:08;8.87;;;3.00;;
21624;SDS011;10974;51.034;3.744;2023-12-22T06:13:34;6.10;;;2.70;;
21624;SDS011;10974;51.034;3.744;2023-12-22T06:16:00;7.17;;;2.30;;
21624;SDS011;10974;51.034;3.744;2023-12-22T06:18:26;6.63;;;2.23;;
21624;SDS011;10974;51.034;3.744;2023-12-22T06:20:52;7.03;;;2.17;;
21624;SDS011;10974;51.034;3.744;2023-12-22T06:23:19;8.00;;;2.30;;
21624;SDS011;10974;51.034;3.744;2023-12-22T06:25:45;9.40;;;2.37;;
21624;SDS011;10974;51.034;3.744;2023-12-22T06:28:12;8.60;;;2.40;;
21624;SDS011;10974;51.034;3.744;2023-12-22T06:30:38;9.73;;;2.80;;
21624;SDS011;10974;51.034;3.744;2023-12-22T06:33:04;6.43;;;2.20;;
21624;SDS011;10974;51.034;3.744;2023-12-22T06:35:30;6.00;;;2.87;;
21624;SDS011;10974;51.034;3.744;2023-12-22T06:37:58;6.40;;;2.63;;
21624;SDS011;10974;51.034;3.744;2023-12-22T06:40:28;11.60;;;3.33;;
21624;SDS011;10974;51.034;3.744;2023-12-22T06:42:54;6.23;;;2.90;;
21624;SDS011;10974;51.034;3.744;2023-12-22T06:45:20;4.73;;;2.47;;
21624;SDS011;10974;51.034;3.744;2023-12-22T06:47:46;9.53;;;2.83;;
21624;SDS011;10974;51.034;3.744;2023-12-22T06:50:12;8.93;;;2.37;;
21624;SDS011;10974;51.034;3.744;2023-12-22T06:52:38;6.50;;;2.40;;
21624;SDS011;10974;51.034;3.744;2023-12-22T06:55:05;8.10;;;2.70;;
21624;SDS011;10974;51.034;3.744;2023-12-22T06:57:31;12.77;;;2.60;;
21624;SDS011;10974;51.034;3.744;2023-12-22T06:59:57;6.53;;;2.50;;
21624;SDS011;10974;51.034;3.744;2023-12-22T07:02:23;5.90;;;2.00;;
21624;SDS011;10974;51.034;3.744;2023-12-22T07:07:34;4.80;;;2.10;;
21624;SDS011;10974;51.034;3.744;2023-12-22T07:10:01;6.03;;;1.70;;
21624;SDS011;10974;51.034;3.744;2023-12-22T07:12:27;4.37;;;1.70;;
21624;SDS011;10974;51.034;3.744;2023-12-22T07:14:53;7.50;;;2.23;;
21624;SDS011;10974;51.034;3.744;2023-12-22T07:17:19;5.77;;;1.83;;
21624;SDS011;10974;51.034;3.744;2023-12-22T07:19:45;4.20;;;2.20;;
21624;SDS011;10974;51.034;3.744;2023-12-22T07:22:12;5.37;;;2.20;;
21624;SDS011;10974;51.034;3.744;2023-12-22T07:24:38;4.00;;;1.90;;
21624;SDS011;10974;51.034;3.744;2023-12-22T07:27:04;5.07;;;1.97;;
21624;SDS011;10974;51.034;3.744;2023-12-22T07:29:30;12.33;;;2.03;;
21624;SDS011;10974;51.034;3.744;2023-12-22T07:31:56;4.50;;;2.23;;
21624;SDS011;10974;51.034;3.744;2023-12-22T07:34:22;3.47;;;1.70;;
21624;SDS011;10974;51.034;3.744;2023-12-22T07:36:48;3.80;;;1.67;;
21624;SDS011;10974;51.034;3.744;2023-12-22T07:39:15;4.20;;;2.10;;
21624;SDS011;10974;51.034;3.744;2023-12-22T07:41:43;2.40;;;1.60;;
21624;SDS011;10974;51.034;3.744;2023-12-22T07:44:09;2.43;;;1.70;;
21624;SDS011;10974;51.034;3.744;2023-12-22T07:46:35;3.57;;;2.30;;
21624;SDS011;10974;51.034;3.744;2023-12-22T07:49:01;6.27;;;2.10;;
21624;SDS011;10974;51.034;3.744;2023-12-22T07:51:27;6.87;;;2.30;;
21624;SDS011;10974;51.034;3.744;2023-12-22T07:53:53;3.37;;;2.07;;
21624;SDS011;10974;51.034;3.744;2023-12-22T07:56:19;3.60;;;2.00;;
21624;SDS011;10974;51.034;3.744;2023-12-22T07:58:45;2.63;;;2.13;;
21624;SDS011;10974;51.034;3.744;2023-12-22T08:01:12;3.30;;;2.00;;
21624;SDS011;10974;51.034;3.744;2023-12-22T08:03:40;2.10;;;1.90;;
21624;SDS011;10974;51.034;3.744;2023-12-22T08:06:06;5.20;;;2.50;;
21624;SDS011;10974;51.034;3.744;2023-12-22T08:08:33;2.47;;;1.87;;
21624;SDS011;10974;51.034;3.744;2023-12-22T08:10:59;3.93;;;2.33;;
21624;SDS011;10974;51.034;3.744;2023-12-22T08:13:25;8.00;;;2.30;;
21624;SDS011;10974;51.034;3.744;2023-12-22T08:15:52;4.17;;;2.10;;
21624;SDS011;10974;51.034;3.744;2023-12-22T08:18:18;3.80;;;1.60;;
21624;SDS011;10974;51.034;3.744;2023-12-22T08:20:44;6.27;;;2.17;;
21624;SDS011;10974;51.034;3.744;2023-12-22T08:23:13;7.23;;;2.00;;
21624;SDS011;10974;51.034;3.744;2023-12-22T08:25:39;4.50;;;2.30;;
21624;SDS011;10974;51.034;3.744;2023-12-22T08:28:06;5.13;;;2.00;;
21624;SDS011;10974;51.034;3.744;2023-12-22T08:30:33;6.23;;;2.00;;
21624;SDS011;10974;51.034;3.744;2023-12-22T08:32:59;3.97;;;1.80;;
21624;SDS011;10974;51.034;3.744;2023-12-22T08:35:26;3.80;;;2.10;;
21624;SDS011;10974;51.034;3.744;2023-12-22T08:37:52;4.10;;;1.63;;
21624;SDS011;10974;51.034;3.744;2023-12-22T08:40:18;3.67;;;1.60;;
21624;SDS011;10974;51.034;3.744;2023-12-22T08:42:50;7.20;;;2.30;;
21624;SDS011;10974;51.034;3.744;2023-12-22T08:45:19;6.37;;;2.07;;
21624;SDS011;10974;51.034;3.744;2023-12-22T08:47:46;4.73;;;1.40;;
21624;SDS011;10974;51.034;3.744;2023-12-22T08:50:12;5.17;;;1.80;;
21624;SDS011;10974;51.034;3.744;2023-12-22T08:52:38;2.70;;;1.50;;
21624;SDS011;10974;51.034;3.744;2023-12-22T08:55:05;4.97;;;1.83;;
21624;SDS011;10974;51.034;3.744;2023-12-22T08:57:31;4.23;;;1.90;;
21624;SDS011;10974;51.034;3.744;2023-12-22T08:59:57;4.30;;;1.50;;
21624;SDS011;10974;51.034;3.744;2023-12-22T09:02:23;2.70;;;1.80;;
21624;SDS011;10974;51.034;3.744;2023-12-22T09:04:49;5.80;;;1.87;;
21624;SDS011;10974;51.034;3.744;2023-12-22T09:07:16;5.23;;;2.03;;
21624;SDS011;10974;51.034;3.744;2023-12-22T09:09:42;3.50;;;1.50;;
21624;SDS011;10974;51.034;3.744;2023-12-22T09:12:08;4.13;;;1.67;;
21624;SDS011;10974;51.034;3.744;2023-12-22T09:14:34;3.03;;;1.30;;
21624;SDS011;10974;51.034;3.744;2023-12-22T09:17:00;3.70;;;1.60;;
21624;SDS011;10974;51.034;3.744;2023-12-22T09:19:26;2.17;;;1.50;;
21624;SDS011;10974;51.034;3.744;2023-12-22T09:21:52;3.57;;;1.40;;
21624;SDS011;10974;51.034;3.744;2023-12-22T09:24:18;1.80;;;1.47;;
21624;SDS011;10974;51.034;3.744;2023-12-22T09:26:44;3.50;;;1.53;;
21624;SDS011;10974;51.034;3.744;2023-12-22T09:29:10;3.77;;;1.90;;
21624;SDS011;10974;51.034;3.744;2023-12-22T09:31:36;5.20;;;2.47;;
21624;SDS011;10974;51.034;3.744;2023-12-22T09:34:02;3.63;;;1.80;;
21624;SDS011;10974;51.034;3.744;2023-12-22T09:36:28;3.53;;;2.07;;
21624;SDS011;10974;51.034;3.744;2023-12-22T09:38:54;3.67;;;2.13;;
21624;SDS011;10974;51.034;3.744;2023-12-22T09:41:20;3.60;;;1.80;;
21624;SDS011;10974;51.034;3.744;2023-12-22T09:43:47;3.93;;;1.70;;
21624;SDS011;10974;51.034;3.744;2023-12-22T09:46:16;2.20;;;1.20;;
21624;SDS011;10974;51.034;3.744;2023-12-22T09:48:43;4.47;;;1.10;;
21624;SDS011;10974;51.034;3.744;2023-12-22T09:51:10;4.07;;;1.30;;
21624;SDS011;10974;51.034;3.744;2023-12-22T09:53:38;3.07;;;1.10;;
21624;SDS011;10974;51.034;3.744;2023-12-22T09:56:04;1.73;;;1.10;;
21624;SDS011;10974;51.034;3.744;2023-12-22T09:58:31;1.97;;;0.83;;
21624;SDS011;10974;51.034;3.744;2023-12-22T10:01:00;4.50;;;1.10;;
21624;SDS011;10974;51.034;3.744;2023-12-22T10:03:30;2.50;;;1.60;;
21624;SDS011;10974;51.034;3.744;2023-12-22T10:05:56;4.40;;;1.70;;
21624;SDS011;10974;51.034;3.744;2023-12-22T10:08:23;1.57;;;1.20;;
21624;SDS011;10974;51.034;3.744;2023-12-22T10:10:49;1.80;;;1.13;;
21624;SDS011;10974;51.034;3.744;2023-12-22T10:13:17;3.80;;;1.10;;
21624;SDS011;10974;51.034;3.744;2023-12-22T10:15:43;3.47;;;1.50;;
21624;SDS011;10974;51.034;3.744;2023-12-22T10:18:11;3.03;;;1.43;;
21624;SDS011;10974;51.034;3.744;2023-12-22T10:20:38;2.67;;;1.13;;
21624;SDS011;10974;51.034;3.744;2023-12-22T10:23:04;5.03;;;2.23;;
21624;SDS011;10974;51.034;3.744;2023-12-22T10:25:31;3.97;;;1.30;;
21624;SDS011;10974;51.034;3.744;2023-12-22T10:28:00;4.23;;;1.50;;
21624;SDS011;10974;51.034;3.744;2023-12-22T10:30:27;2.40;;;1.20;;
21624;SDS011;10974;51.034;3.744;2023-12-22T10:32:54;6.57;;;3.03;;
21624;SDS011;10974;51.034;3.744;2023-12-22T10:35:20;2.10;;;1.00;;
21624;SDS011;10974;51.034;3.744;2023-12-22T10:37:46;4.10;;;1.27;;
21624;SDS011;10974;51.034;3.744;2023-12-22T10:40:12;4.00;;;1.30;;
21624;SDS011;10974;51.034;3.744;2023-12-22T10:42:41;4.20;;;1.73;;
21624;SDS011;10974;51.034;3.744;2023-12-22T10:45:08;2.43;;;1.07;;
21624;SDS011;10974;51.034;3.744;2023-12-22T10:47:34;3.80;;;1.37;;
21624;SDS011;10974;51.034;3.744;2023-12-22T10:50:03;1.37;;;0.90;;
21624;SDS011;10974;51.034;3.744;2023-12-22T10:52:29;1.43;;;1.03;;
21624;SDS011;10974;51.034;3.744;2023-12-22T10:54:58;5.50;;;1.10;;
21624;SDS011;10974;51.034;3.744;2023-12-22T10:57:26;1.40;;;0.90;;
21624;SDS011;10974;51.034;3.744;2023-12-22T10:59:56;2.27;;;1.00;;
21624;SDS011;10974;51.034;3.744;2023-12-22T11:02:23;2.60;;;1.33;;
21624;SDS011;10974;51.034;3.744;2023-12-22T11:07:25;4.23;;;1.17;;
21624;SDS011;10974;51.034;3.744;2023-12-22T11:09:51;2.97;;;1.20;;
21624;SDS011;10974;51.034;3.744;2023-12-22T11:12:20;3.20;;;1.30;;
21624;SDS011;10974;51.034;3.744;2023-12-22T11:14:47;2.70;;;1.43;;
21624;SDS011;10974;51.034;3.744;2023-12-22T11:17:19;1.40;;;0.80;;
21624;SDS011;10974;51.034;3.744;2023-12-22T11:19:50;3.00;;;1.03;;
21624;SDS011;10974;51.034;3.744;2023-12-22T11:22:19;1.30;;;1.10;;
21624;SDS011;10974;51.034;3.744;2023-12-22T11:24:47;2.03;;;1.00;;
21624;SDS011;10974;51.034;3.744;2023-12-22T11:27:16;2.83;;;0.80;;
21624;SDS011;10974;51.034;3.744;2023-12-22T11:29:44;0.80;;;0.80;;
21624;SDS011;10974;51.034;3.744;2023-12-22T11:32:11;2.20;;;0.90;;
21624;SDS011;10974;51.034;3.744;2023-12-22T11:34:39;2.40;;;1.37;;
21624;SDS011;10974;51.034;3.744;2023-12-22T11:37:07;2.80;;;1.10;;
21624;SDS011;10974;51.034;3.744;2023-12-22T11:39:33;1.90;;;1.17;;
21624;SDS011;10974;51.034;3.744;2023-12-22T11:42:00;3.07;;;1.67;;
21624;SDS011;10974;51.034;3.744;2023-12-22T11:44:28;3.77;;;1.20;;
21624;SDS011;10974;51.034;3.744;2023-12-22T11:47:07;4.20;;;1.43;;
21624;SDS011;10974;51.034;3.744;2023-12-22T11:49:35;1.77;;;1.00;;
21624;SDS011;10974;51.034;3.744;2023-12-22T11:52:11;1.47;;;1.10;;
21624;SDS011;10974;51.034;3.744;2023-12-22T11:54:46;3.87;;;1.20;;
21624;SDS011;10974;51.034;3.744;2023-12-22T12:02:44;5.40;;;1.13;;
21624;SDS011;10974;51.034;3.744;2023-12-22T12:05:20;4.20;;;1.30;;
21624;SDS011;10974;51.034;3.744;2023-12-22T12:07:46;2.67;;;1.30;;
21624;SDS011;10974;51.034;3.744;2023-12-22T12:13:11;3.27;;;1.20;;
21624;SDS011;10974;51.034;3.744;2023-12-22T12:15:41;5.20;;;1.23;;
21624;SDS011;10974;51.034;3.744;2023-12-22T12:18:07;7.33;;;1.53;;
21624;SDS011;10974;51.034;3.744;2023-12-22T12:20:34;5.10;;;1.30;;
21624;SDS011;10974;51.034;3.744;2023-12-22T12:23:01;4.20;;;1.40;;
21624;SDS011;10974;51.034;3.744;2023-12-22T12:25:28;5.43;;;2.03;;
21624;SDS011;10974;51.034;3.744;2023-12-22T12:28:03;4.60;;;1.60;;
21624;SDS011;10974;51.034;3.744;2023-12-22T12:30:30;6.20;;;3.10;;
21624;SDS011;10974;51.034;3.744;2023-12-22T12:32:58;3.17;;;1.20;;
21624;SDS011;10974;51.034;3.744;2023-12-22T12:35:28;6.17;;;1.33;;
21624;SDS011;10974;51.034;3.744;2023-12-22T12:37:54;2.77;;;1.07;;
21624;SDS011;10974;51.034;3.744;2023-12-22T12:40:21;3.00;;;1.40;;
21624;SDS011;10974;51.034;3.744;2023-12-22T12:42:49;4.37;;;1.27;;
21624;SDS011;10974;51.034;3.744;2023-12-22T12:45:19;3.13;;;1.17;;
21624;SDS011;10974;51.034;3.744;2023-12-22T12:48:00;2.97;;;1.20;;
21624;SDS011;10974;51.034;3.744;2023-12-22T12:50:26;1.50;;;1.20;;
21624;SDS011;10974;51.034;3.744;2023-12-22T12:52:59;1.80;;;0.90;;
21624;SDS011;10974;51.034;3.744;2023-12-22T12:55:25;4.30;;;1.83;;
21624;SDS011;10974;51.034;3.744;2023-12-22T12:57:51;3.17;;;1.10;;
21624;SDS011;10974;51.034;3.744;2023-12-22T13:00:27;3.13;;;1.00;;
21624;SDS011;10974;51.034;3.744;2023-12-22T13:02:54;3.33;;;1.20;;
21624;SDS011;10974;51.034;3.744;2023-12-22T13:05:24;3.20;;;1.17;;
21624;SDS011;10974;51.034;3.744;2023-12-22T13:07:50;4.00;;;1.30;;
21624;SDS011;10974;51.034;3.744;2023-12-22T13:10:20;2.97;;;1.10;;
21624;SDS011;10974;51.034;3.744;2023-12-22T13:12:46;1.57;;;0.90;;
21624;SDS011;10974;51.034;3.744;2023-12-22T13:15:12;3.80;;;1.33;;
21624;SDS011;10974;51.034;3.744;2023-12-22T13:17:39;3.60;;;1.47;;
21624;SDS011;10974;51.034;3.744;2023-12-22T13:20:05;1.20;;;1.00;;
21624;SDS011;10974;51.034;3.744;2023-12-22T13:22:32;2.23;;;1.20;;
21624;SDS011;10974;51.034;3.744;2023-12-22T13:24:58;5.53;;;1.23;;
21624;SDS011;10974;51.034;3.744;2023-12-22T13:27:24;3.50;;;1.20;;
21624;SDS011;10974;51.034;3.744;2023-12-22T13:29:50;2.10;;;1.30;;
21624;SDS011;10974;51.034;3.744;2023-12-22T13:32:20;6.80;;;1.40;;
21624;SDS011;10974;51.034;3.744;2023-12-22T13:34:52;3.87;;;1.47;;
21624;SDS011;10974;51.034;3.744;2023-12-22T13:37:19;2.03;;;1.00;;
21624;SDS011;10974;51.034;3.744;2023-12-22T13:39:45;2.67;;;1.23;;
21624;SDS011;10974;51.034;3.744;2023-12-22T13:42:15;2.30;;;1.20;;
21624;SDS011;10974;51.034;3.744;2023-12-22T13:44:42;3.33;;;1.40;;
21624;SDS011;10974;51.034;3.744;2023-12-22T13:47:08;2.30;;;1.07;;
21624;SDS011;10974;51.034;3.744;2023-12-22T13:49:34;1.60;;;1.10;;
21624;SDS011;10974;51.034;3.744;2023-12-22T13:52:01;2.30;;;1.13;;
21624;SDS011;10974;51.034;3.744;2023-12-22T13:54:34;2.17;;;1.00;;
21624;SDS011;10974;51.034;3.744;2023-12-22T13:57:00;4.10;;;1.20;;
21624;SDS011;10974;51.034;3.744;2023-12-22T13:59:33;2.43;;;0.90;;
21624;SDS011;10974;51.034;3.744;2023-12-22T14:01:59;2.60;;;1.23;;
21624;SDS011;10974;51.034;3.744;2023-12-22T14:04:26;2.30;;;1.10;;
21624;SDS011;10974;51.034;3.744;2023-12-22T14:06:52;1.93;;;1.03;;
21624;SDS011;10974;51.034;3.744;2023-12-22T14:09:18;2.67;;;1.17;;
21624;SDS011;10974;51.034;3.744;2023-12-22T14:11:49;1.63;;;1.20;;
21624;SDS011;10974;51.034;3.744;2023-12-22T14:14:15;4.47;;;1.20;;
21624;SDS011;10974;51.034;3.744;2023-12-22T14:16:42;3.10;;;1.10;;
21624;SDS011;10974;51.034;3.744;2023-12-22T14:19:08;3.33;;;1.47;;
21624;SDS011;10974;51.034;3.744;2023-12-22T14:21:34;2.20;;;1.00;;
21624;SDS011;10974;51.034;3.744;2023-12-22T14:24:00;3.00;;;1.37;;
21624;SDS011;10974;51.034;3.744;2023-12-22T14:26:26;3.13;;;1.17;;
21624;SDS011;10974;51.034;3.744;2023-12-22T14:28:52;4.30;;;1.27;;
21624;SDS011;10974;51.034;3.744;2023-12-22T14:31:18;2.23;;;1.10;;
21624;SDS011;10974;51.034;3.744;2023-12-22T14:33:46;4.80;;;1.30;;
21624;SDS011;10974;51.034;3.744;2023-12-22T14:36:12;2.97;;;1.73;;
21624;SDS011;10974;51.034;3.744;2023-12-22T14:38:38;4.60;;;1.63;;
21624;SDS011;10974;51.034;3.744;2023-12-22T14:41:04;2.83;;;1.40;;
21624;SDS011;10974;51.034;3.744;2023-12-22T14:43:30;2.90;;;1.20;;
21624;SDS011;10974;51.034;3.744;2023-12-22T14:45:56;3.23;;;1.53;;
21624;SDS011;10974;51.034;3.744;2023-12-22T14:48:22;2.37;;;1.47;;
21624;SDS011;10974;51.034;3.744;2023-12-22T14:50:48;2.63;;;1.20;;
21624;SDS011;10974;51.034;3.744;2023-12-22T14:53:14;2.87;;;1.50;;
21624;SDS011;10974;51.034;3.744;2023-12-22T14:55:40;6.53;;;1.57;;
21624;SDS011;10974;51.034;3.744;2023-12-22T14:58:07;2.70;;;1.30;;
21624;SDS011;10974;51.034;3.744;2023-12-22T15:00:34;1.90;;;1.17;;
21624;SDS011;10974;51.034;3.744;2023-12-22T15:03:01;3.33;;;1.37;;
21624;SDS011;10974;51.034;3.744;2023-12-22T15:05:27;2.83;;;1.27;;
21624;SDS011;10974;51.034;3.744;2023-12-22T15:07:55;3.03;;;1.30;;
21624;SDS011;10974;51.034;3.744;2023-12-22T15:10:21;4.03;;;1.50;;
21624;SDS011;10974;51.034;3.744;2023-12-22T15:12:47;4.17;;;1.60;;
21624;SDS011;10974;51.034;3.744;2023-12-22T15:15:13;3.60;;;1.87;;
21624;SDS011;10974;51.034;3.744;2023-12-22T15:17:39;4.30;;;1.60;;
21624;SDS011;10974;51.034;3.744;2023-12-22T15:20:06;2.57;;;1.50;;
21624;SDS011;10974;51.034;3.744;2023-12-22T15:22:33;4.63;;;2.17;;
21624;SDS011;10974;51.034;3.744;2023-12-22T15:24:59;6.33;;;2.73;;
21624;SDS011;10974;51.034;3.744;2023-12-22T15:27:25;4.80;;;1.53;;
21624;SDS011;10974;51.034;3.744;2023-12-22T15:29:52;2.90;;;1.23;;
21624;SDS011;10974;51.034;3.744;2023-12-22T15:32:18;5.20;;;1.40;;
21624;SDS011;10974;51.034;3.744;2023-12-22T15:34:45;7.87;;;1.53;;
21624;SDS011;10974;51.034;3.744;2023-12-22T15:37:12;1.73;;;1.20;;
21624;SDS011;10974;51.034;3.744;2023-12-22T15:39:38;3.53;;;1.30;;
21624;SDS011;10974;51.034;3.744;2023-12-22T15:42:04;4.80;;;1.20;;
21624;SDS011;10974;51.034;3.744;2023-12-22T15:44:30;3.43;;;1.53;;
21624;SDS011;10974;51.034;3.744;2023-12-22T15:46:57;3.50;;;1.20;;
21624;SDS011;10974;51.034;3.744;2023-12-22T15:49:23;3.20;;;0.93;;
21624;SDS011;10974;51.034;3.744;2023-12-22T15:51:49;4.03;;;1.37;;
21624;SDS011;10974;51.034;3.744;2023-12-22T15:54:18;3.17;;;1.20;;
21624;SDS011;10974;51.034;3.744;2023-12-22T15:56:44;3.30;;;1.30;;
21624;SDS011;10974;51.034;3.744;2023-12-22T15:59:10;5.07;;;1.87;;
21624;SDS011;10974;51.034;3.744;2023-12-22T16:01:46;9.07;;;1.53;;
21624;SDS011;10974;51.034;3.744;2023-12-22T16:04:12;3.30;;;1.30;;
21624;SDS011;10974;51.034;3.744;2023-12-22T16:06:38;2.50;;;1.30;;
21624;SDS011;10974;51.034;3.744;2023-12-22T16:09:04;3.73;;;1.40;;
21624;SDS011;10974;51.034;3.744;2023-12-22T16:11:30;2.30;;;1.00;;
21624;SDS011;10974;51.034;3.744;2023-12-22T16:13:57;2.93;;;1.30;;
21624;SDS011;10974;51.034;3.744;2023-12-22T16:16:23;2.40;;;1.40;;
21624;SDS011;10974;51.034;3.744;2023-12-22T16:18:49;2.47;;;1.10;;
21624;SDS011;10974;51.034;3.744;2023-12-22T16:21:15;5.10;;;1.60;;
21624;SDS011;10974;51.034;3.744;2023-12-22T16:23:42;6.37;;;1.67;;
21624;SDS011;10974;51.034;3.744;2023-12-22T16:26:08;1.60;;;1.10;;
21624;SDS011;10974;51.034;3.744;2023-12-22T16:28:34;4.73;;;1.40;;
21624;SDS011;10974;51.034;3.744;2023-12-22T16:31:03;6.47;;;2.00;;
21624;SDS011;10974;51.034;3.744;2023-12-22T16:33:29;3.17;;;1.70;;
21624;SDS011;10974;51.034;3.744;2023-12-22T16:35:55;5.13;;;1.23;;
21624;SDS011;10974;51.034;3.744;2023-12-22T16:38:21;5.77;;;1.70;;
21624;SDS011;10974;51.034;3.744;2023-12-22T16:40:47;5.60;;;1.50;;
21624;SDS011;10974;51.034;3.744;2023-12-22T16:43:13;2.73;;;1.50;;
21624;SDS011;10974;51.034;3.744;2023-12-22T16:45:40;3.57;;;1.50;;
21624;SDS011;10974;51.034;3.744;2023-12-22T16:48:06;4.97;;;1.40;;
21624;SDS011;10974;51.034;3.744;2023-12-22T16:50:32;2.23;;;1.17;;
21624;SDS011;10974;51.034;3.744;2023-12-22T16:52:58;5.10;;;1.50;;
21624;SDS011;10974;51.034;3.744;2023-12-22T16:55:24;4.43;;;1.63;;
21624;SDS011;10974;51.034;3.744;2023-12-22T16:57:50;3.33;;;1.57;;
21624;SDS011;10974;51.034;3.744;2023-12-22T17:00:16;2.83;;;1.20;;
21624;SDS011;10974;51.034;3.744;2023-12-22T17:02:44;2.30;;;1.47;;
21624;SDS011;10974;51.034;3.744;2023-12-22T17:05:11;2.80;;;1.50;;
21624;SDS011;10974;51.034;3.744;2023-12-22T17:07:37;3.07;;;1.20;;
21624;SDS011;10974;51.034;3.744;2023-12-22T17:10:03;2.43;;;1.20;;
21624;SDS011;10974;51.034;3.744;2023-12-22T17:12:29;5.03;;;1.53;;
21624;SDS011;10974;51.034;3.744;2023-12-22T17:14:55;7.90;;;2.33;;
21624;SDS011;10974;51.034;3.744;2023-12-22T17:17:21;2.93;;;1.67;;
21624;SDS011;10974;51.034;3.744;2023-12-22T17:19:47;5.53;;;1.30;;
21624;SDS011;10974;51.034;3.744;2023-12-22T17:22:13;4.67;;;1.40;;
21624;SDS011;10974;51.034;3.744;2023-12-22T17:24:39;3.07;;;1.40;;
21624;SDS011;10974;51.034;3.744;2023-12-22T17:27:08;3.80;;;1.93;;
21624;SDS011;10974;51.034;3.744;2023-12-22T17:29:34;3.73;;;1.20;;
21624;SDS011;10974;51.034;3.744;2023-12-22T17:32:00;1.33;;;1.17;;
21624;SDS011;10974;51.034;3.744;2023-12-22T17:34:32;5.10;;;1.60;;
21624;SDS011;10974;51.034;3.744;2023-12-22T17:36:58;4.63;;;1.80;;
21624;SDS011;10974;51.034;3.744;2023-12-22T17:39:24;7.80;;;1.67;;
21624;SDS011;10974;51.034;3.744;2023-12-22T17:41:50;5.23;;;1.80;;
21624;SDS011;10974;51.034;3.744;2023-12-22T17:44:16;2.00;;;1.33;;
21624;SDS011;10974;51.034;3.744;2023-12-22T17:46:42;4.90;;;1.80;;
21624;SDS011;10974;51.034;3.744;2023-12-22T17:49:09;5.50;;;2.00;;
21624;SDS011;10974;51.034;3.744;2023-12-22T17:51:35;2.90;;;1.60;;
21624;SDS011;10974;51.034;3.744;2023-12-22T17:54:01;6.57;;;1.70;;
21624;SDS011;10974;51.034;3.744;2023-12-22T17:56:27;4.33;;;1.53;;
21624;SDS011;10974;51.034;3.744;2023-12-22T17:58:54;2.97;;;1.63;;
21624;SDS011;10974;51.034;3.744;2023-12-22T18:01:20;5.53;;;1.57;;
21624;SDS011;10974;51.034;3.744;2023-12-22T18:03:47;2.63;;;1.27;;
21624;SDS011;10974;51.034;3.744;2023-12-22T18:06:19;3.00;;;1.27;;
21624;SDS011;10974;51.034;3.744;2023-12-22T18:08:46;4.33;;;1.60;;
21624;SDS011;10974;51.034;3.744;2023-12-22T18:11:12;2.80;;;1.50;;
21624;SDS011;10974;51.034;3.744;2023-12-22T18:13:38;1.97;;;1.40;;
21624;SDS011;10974;51.034;3.744;2023-12-22T18:16:04;4.90;;;1.57;;
21624;SDS011;10974;51.034;3.744;2023-12-22T18:18:30;2.67;;;1.20;;
21624;SDS011;10974;51.034;3.744;2023-12-22T18:20:57;4.17;;;1.60;;
21624;SDS011;10974;51.034;3.744;2023-12-22T18:23:24;2.27;;;1.30;;
21624;SDS011;10974;51.034;3.744;2023-12-22T18:25:50;4.27;;;1.23;;
21624;SDS011;10974;51.034;3.744;2023-12-22T18:28:16;4.73;;;1.87;;
21624;SDS011;10974;51.034;3.744;2023-12-22T18:30:42;2.70;;;1.77;;
21624;SDS011;10974;51.034;3.744;2023-12-22T18:33:08;6.18;;;1.67;;
21624;SDS011;10974;51.034;3.744;2023-12-22T18:35:34;3.40;;;1.60;;
21624;SDS011;10974;51.034;3.744;2023-12-22T18:38:00;5.37;;;2.03;;